Time;durP1;ratioP1;P1;durP2;ratioP2;P2;SDS_P1;SDS_P2;PMS_P1;PMS_P2;Temp;Humidity;BMP_temperature;BMP_pressure;BME280_temperature;BME280_humidity;BME280_pressure;Samples;Min_cycle;Max_cycle;Signal;HPM_P1;HPM_P2
2022/01/15 00:00:21;;;;;;;3.20;0.90;;;;;;;3.78;50.47;99099.16;1723084;82;21144;-67
2022/01/15 00:02:50;;;;;;;3.22;0.80;;;;;;;3.80;50.14;99083.88;1715292;82;21046;-68
2022/01/15 00:05:17;;;;;;;3.05;0.80;;;;;;;3.80;49.94;99093.64;1749381;81;21094;-67
2022/01/15 00:07:47;;;;;;;4.15;0.88;;;;;;;3.84;50.25;99102.66;1728786;81;21087;-67
2022/01/15 00:10:12;;;;;;;3.05;0.82;;;;;;;3.82;49.91;99100.28;1723637;82;21035;-68
2022/01/15 00:12:40;;;;;;;6.40;0.90;;;;;;;3.83;50.28;99111.11;1743694;81;22154;-68
2022/01/15 00:15:14;;;;;;;3.92;0.90;;;;;;;3.82;49.86;99125.37;1724416;81;21087;-68
2022/01/15 00:20:11;;;;;;;3.37;1.07;;;;;;;3.84;49.44;99119.30;1741863;81;21470;-68
2022/01/15 00:22:38;;;;;;;3.10;0.80;;;;;;;3.84;48.68;99121.94;1731665;81;21070;-69
2022/01/15 00:25:06;;;;;;;3.37;1.12;;;;;;;3.89;48.42;99128.61;1727885;81;21101;-71
2022/01/15 00:27:32;;;;;;;5.37;0.95;;;;;;;3.92;48.63;99137.36;1728644;81;21107;-70
2022/01/15 00:29:59;;;;;;;2.33;0.90;;;;;;;3.90;48.77;99141.29;1744237;80;21039;-71
2022/01/15 00:32:25;;;;;;;3.12;1.02;;;;;;;3.89;48.74;99137.85;1726790;81;21067;-70
2022/01/15 00:34:52;;;;;;;3.40;0.90;;;;;;;3.88;48.30;99140.73;1725212;81;21157;-70
2022/01/15 00:37:19;;;;;;;3.35;1.05;;;;;;;3.85;48.01;99152.61;1749833;81;21508;-71
2022/01/15 00:39:45;;;;;;;2.72;0.98;;;;;;;3.88;48.08;99138.09;1729552;81;21499;-72
2022/01/15 00:42:13;;;;;;;2.65;0.90;;;;;;;3.87;47.73;99150.50;1751596;81;21037;-70
2022/01/15 00:44:41;;;;;;;3.00;0.90;;;;;;;3.90;47.36;99131.52;1751419;81;21107;-70
2022/01/15 00:47:10;;;;;;;1.95;0.85;;;;;;;3.91;47.40;99152.91;1751520;81;21079;-71
2022/01/15 00:49:37;;;;;;;6.58;0.90;;;;;;;3.93;47.74;99150.84;1752412;81;21210;-71
2022/01/15 00:52:03;;;;;;;3.60;0.95;;;;;;;3.94;47.64;99153.74;1752512;81;21086;-68
2022/01/15 00:54:32;;;;;;;2.12;0.90;;;;;;;3.94;47.55;99158.23;1752271;81;21033;-69
2022/01/15 00:56:58;;;;;;;4.15;1.47;;;;;;;3.93;47.36;99162.72;1734072;81;20972;-70
2022/01/15 00:59:24;;;;;;;3.10;0.80;;;;;;;3.91;47.70;99152.91;1722189;83;20979;-70
2022/01/15 01:01:51;;;;;;;5.22;1.10;;;;;;;3.91;47.46;99157.41;1722950;83;21792;-71
2022/01/15 01:04:17;;;;;;;3.45;0.90;;;;;;;3.89;47.85;99148.95;1722213;83;20999;-69
2022/01/15 01:06:43;;;;;;;5.67;0.85;;;;;;;3.89;47.84;99152.38;1724946;81;21098;-70
2022/01/15 01:09:10;;;;;;;4.50;0.93;;;;;;;3.89;47.84;99164.80;1722713;81;21522;-70
2022/01/15 01:11:52;;;;;;;4.72;1.37;;;;;;;3.90;47.99;99167.17;1722747;83;21110;-69
2022/01/15 01:24:51;;;;;;;3.90;1.10;;;;;;;3.91;47.73;99192.53;1722504;83;20964;-70
2022/01/15 01:27:43;;;;;;;2.85;0.75;;;;;;;3.91;47.73;99167.97;1722599;83;20994;-71
2022/01/15 01:32:53;;;;;;;5.30;1.10;;;;;;;3.90;48.11;99209.97;1719868;82;21066;-70
2022/01/15 01:35:31;;;;;;;1.80;0.68;;;;;;;3.90;47.83;99188.31;1709005;84;20995;-71
2022/01/15 01:37:50;;;;;;;5.70;1.12;;;;;;;3.91;48.08;99202.31;1705371;84;21074;-70
2022/01/15 01:40:19;;;;;;;2.67;0.85;;;;;;;3.91;48.23;99221.59;1709024;84;21047;-70
2022/01/15 01:42:51;;;;;;;5.67;1.10;;;;;;;3.87;48.55;99205.97;1708853;84;22439;-71
2022/01/15 01:45:13;;;;;;;6.30;1.10;;;;;;;3.87;48.72;99198.05;1708080;84;21027;-71
2022/01/15 01:47:42;;;;;;;2.62;0.80;;;;;;;3.86;49.09;99216.27;1709558;84;21578;-69
2022/01/15 01:50:24;;;;;;;3.22;0.78;;;;;;;3.80;49.02;99145.94;1709708;84;21034;-70
2022/01/15 01:52:54;;;;;;;2.62;0.88;;;;;;;3.78;48.34;99212.72;1709679;84;21157;-70
2022/01/15 01:55:23;;;;;;;6.83;1.00;;;;;;;3.81;48.16;99214.87;1709552;84;21458;-70
2022/01/15 01:57:51;;;;;;;4.00;0.90;;;;;;;3.85;48.20;99235.81;1709570;84;21132;-71
2022/01/15 02:00:19;;;;;;;3.05;0.90;;;;;;;3.84;48.36;99237.36;1709586;84;20999;-70
2022/01/15 02:02:49;;;;;;;2.55;0.90;;;;;;;3.83;48.66;99247.13;1709563;84;21580;-70
2022/01/15 02:05:16;;;;;;;2.42;0.75;;;;;;;3.83;48.97;99230.48;1709619;84;22134;-70
2022/01/15 02:07:43;;;;;;;2.52;0.70;;;;;;;3.79;48.94;99232.03;1709386;84;21069;-69
2022/01/15 02:10:17;;;;;;;4.37;0.82;;;;;;;3.75;48.83;99228.55;1709519;84;21039;-70
2022/01/15 02:12:45;;;;;;;3.15;0.90;;;;;;;3.75;48.64;99254.14;1709389;84;21150;-70
2022/01/15 02:15:17;;;;;;;1.87;0.85;;;;;;;3.73;48.87;99250.44;1714105;82;21541;-70
2022/01/15 02:17:45;;;;;;;3.58;1.02;;;;;;;3.72;48.83;99262.05;1722184;83;21166;-70
2022/01/15 02:25:56;;;;;;;4.72;1.17;;;;;;;3.71;50.13;99265.71;1726380;81;21573;-70
2022/01/15 02:28:26;;;;;;;4.30;1.30;;;;;;;3.67;50.71;99319.27;1725287;82;20968;-70
2022/01/15 02:31:09;;;;;;;2.98;0.70;;;;;;;3.64;51.37;99305.22;1721431;81;21126;-70
2022/01/15 02:33:36;;;;;;;5.28;1.10;;;;;;;3.57;51.36;99287.44;1709272;83;21566;-69
2022/01/15 02:36:07;;;;;;;3.55;0.98;;;;;;;3.55;51.24;99305.34;1709677;84;21149;-70
2022/01/15 02:38:35;;;;;;;3.52;1.00;;;;;;;3.52;51.57;99277.08;1709563;83;21062;-70
2022/01/15 02:41:03;;;;;;;2.42;0.82;;;;;;;3.51;52.77;99322.98;1722008;81;21035;-70
2022/01/15 02:43:33;;;;;;;5.60;1.20;;;;;;;3.48;54.14;99302.34;1752398;81;21051;-70
2022/01/15 02:46:21;;;;;;;3.47;0.98;;;;;;;3.38;55.02;99324.63;1752692;81;20968;-70
2022/01/15 02:49:01;;;;;;;5.15;0.82;;;;;;;3.26;55.79;99327.88;1752283;81;20948;-70
2022/01/15 02:51:33;;;;;;;3.33;1.05;;;;;;;3.11;56.58;99330.25;1752228;81;21008;-69
2022/01/15 02:53:59;;;;;;;4.12;1.30;;;;;;;2.99;57.58;99334.25;1752405;81;21608;-69
2022/01/15 02:56:31;;;;;;;3.60;1.00;;;;;;;2.85;58.52;99340.87;1752792;81;21634;-70
2022/01/15 02:58:58;;;;;;;6.35;1.20;;;;;;;2.76;59.11;99325.93;1751371;81;21055;-70
2022/01/15 03:01:24;;;;;;;3.90;1.17;;;;;;;2.71;59.31;99364.08;1752762;81;21039;-71
2022/01/15 03:03:51;;;;;;;4.28;1.20;;;;;;;2.67;59.56;99353.20;1752347;81;20984;-71
2022/01/15 03:06:20;;;;;;;3.12;1.20;;;;;;;2.65;59.15;99358.42;1752443;81;20971;-70
2022/01/15 03:08:47;;;;;;;5.58;1.02;;;;;;;2.68;58.93;99367.98;1752377;81;21150;-71
2022/01/15 03:11:15;;;;;;;4.65;1.20;;;;;;;2.72;58.50;99348.02;1752498;81;21426;-70
2022/01/15 03:13:42;;;;;;;3.22;1.12;;;;;;;2.79;58.14;99349.19;1752396;81;21443;-69
2022/01/15 03:16:15;;;;;;;4.00;1.37;;;;;;;2.85;57.82;99365.92;1752565;81;21083;-71
2022/01/15 03:18:42;;;;;;;5.08;1.00;;;;;;;2.91;57.43;99363.14;1752251;81;20968;-71
2022/01/15 03:21:09;;;;;;;2.77;0.80;;;;;;;2.94;57.20;99362.67;1752732;81;21618;-70
2022/01/15 03:23:35;;;;;;;2.77;0.80;;;;;;;2.99;56.99;99360.11;1752354;81;21486;-69
2022/01/15 03:26:04;;;;;;;5.25;1.10;;;;;;;3.02;56.84;99343.81;1752531;81;21541;-70
2022/01/15 03:28:31;;;;;;;5.55;1.17;;;;;;;3.06;56.83;99363.95;1752532;81;21023;-70
2022/01/15 03:30:57;;;;;;;3.00;0.90;;;;;;;3.08;56.44;99365.02;1734997;81;20996;-70
2022/01/15 03:33:23;;;;;;;3.52;1.40;;;;;;;3.10;56.33;99374.83;1722624;83;21485;-69
2022/01/15 03:35:50;;;;;;;5.10;1.52;;;;;;;3.11;56.25;99348.72;1722543;83;20996;-70
2022/01/15 03:38:18;;;;;;;2.47;1.17;;;;;;;3.12;56.13;99356.91;1722384;83;21067;-70
2022/01/15 03:40:44;;;;;;;4.78;1.10;;;;;;;3.11;55.53;99361.39;1722597;83;20996;-70
2022/01/15 03:43:10;;;;;;;4.33;1.05;;;;;;;3.12;55.26;99353.74;1722643;83;21035;-68
2022/01/15 03:45:38;;;;;;;3.30;1.20;;;;;;;3.15;54.77;99356.44;1747074;81;22012;-70
2022/01/15 03:48:05;;;;;;;3.92;1.00;;;;;;;3.18;54.31;99371.80;1729415;81;21061;-70
2022/01/15 03:50:31;;;;;;;3.33;0.90;;;;;;;3.22;54.21;99364.47;1724205;81;21556;-69
2022/01/15 03:52:58;;;;;;;4.05;1.25;;;;;;;3.26;53.90;99383.30;1722279;83;21487;-70
2022/01/15 03:55:25;;;;;;;3.85;1.17;;;;;;;3.27;53.49;99371.69;1722827;83;21562;-70
2022/01/15 03:57:52;;;;;;;5.17;1.07;;;;;;;3.29;53.34;99368.28;1722332;83;21831;-69
2022/01/15 04:00:26;;;;;;;4.37;1.12;;;;;;;3.31;52.97;99380.73;1722475;83;21071;-70
2022/01/15 04:02:55;;;;;;;3.95;1.02;;;;;;;3.34;53.02;99374.18;1722526;81;21106;-70
2022/01/15 04:05:21;;;;;;;3.83;1.25;;;;;;;3.37;52.88;99381.09;1722381;83;21011;-70
2022/01/15 04:07:48;;;;;;;3.98;1.00;;;;;;;3.41;52.84;99390.14;1722767;83;21285;-70
2022/01/15 04:10:16;;;;;;;3.17;1.10;;;;;;;3.42;52.71;99385.16;1722500;83;21147;-70
2022/01/15 04:12:43;;;;;;;3.52;0.90;;;;;;;3.44;52.82;99364.59;1722547;83;21114;-70
2022/01/15 04:15:15;;;;;;;2.65;0.88;;;;;;;3.46;52.79;99377.03;1722621;83;20948;-71
2022/01/15 04:17:45;;;;;;;3.40;0.90;;;;;;;3.46;52.48;99394.19;1722731;83;21020;-69
2022/01/15 04:20:12;;;;;;;3.30;1.20;;;;;;;3.48;52.58;99392.09;1722631;83;21017;-70
2022/01/15 04:22:39;;;;;;;2.58;0.90;;;;;;;3.50;52.33;99401.11;1722261;83;21557;-71
2022/01/15 04:25:07;;;;;;;3.47;0.98;;;;;;;3.54;52.41;99381.11;1722463;83;21066;-70
2022/01/15 04:27:37;;;;;;;4.00;1.00;;;;;;;3.57;52.13;99395.68;1722257;83;21071;-70
2022/01/15 04:30:07;;;;;;;2.65;0.90;;;;;;;3.61;52.09;99395.47;1722456;82;21166;-71
2022/01/15 04:32:34;;;;;;;3.83;1.00;;;;;;;3.64;51.95;99404.23;1722540;83;21023;-71
2022/01/15 04:35:00;;;;;;;3.45;0.98;;;;;;;3.64;51.91;99396.31;1722534;83;22006;-70
2022/01/15 04:37:37;;;;;;;2.90;0.93;;;;;;;3.64;51.84;99418.23;1751078;81;21562;-69
2022/01/15 04:39:57;;;;;;;4.03;1.10;;;;;;;3.66;51.75;99402.17;1751370;81;21506;-70
2022/01/15 04:42:25;;;;;;;3.02;0.80;;;;;;;3.68;51.26;99394.80;1752385;81;21138;-70
2022/01/15 04:44:52;;;;;;;3.35;0.78;;;;;;;3.70;51.19;99396.16;1752354;81;20963;-71
2022/01/15 04:47:18;;;;;;;5.12;1.00;;;;;;;3.73;51.09;99413.38;1752434;81;21440;-69
2022/01/15 04:49:45;;;;;;;2.20;0.70;;;;;;;3.78;50.89;99375.14;1752408;81;20952;-71
2022/01/15 04:52:11;;;;;;;3.87;0.95;;;;;;;3.80;50.82;99385.48;1752806;81;20948;-70
2022/01/15 04:54:38;;;;;;;3.75;0.90;;;;;;;3.84;50.72;99385.27;1752275;81;21122;-70
2022/01/15 04:57:05;;;;;;;4.37;0.85;;;;;;;3.85;50.61;99396.94;1752923;81;21079;-70
2022/01/15 04:59:32;;;;;;;4.60;0.90;;;;;;;3.86;50.41;99403.80;1752386;81;21138;-70
2022/01/15 05:01:58;;;;;;;3.15;0.78;;;;;;;3.87;50.43;99405.39;1752455;81;20960;-71
2022/01/15 05:04:25;;;;;;;1.60;0.70;;;;;;;3.89;50.36;99409.13;1752171;81;21015;-68
2022/01/15 05:06:51;;;;;;;2.75;0.82;;;;;;;3.86;49.83;99451.35;1752583;81;21019;-70
2022/01/15 05:09:18;;;;;;;2.05;0.72;;;;;;;3.88;49.81;99400.41;1724989;81;20996;-70
2022/01/15 05:11:58;;;;;;;5.03;0.90;;;;;;;3.90;49.78;99397.52;1752394;81;21130;-71
2022/01/15 05:14:18;;;;;;;2.40;0.70;;;;;;;3.89;49.90;99407.81;1750841;81;20996;-70
2022/01/15 05:16:45;;;;;;;3.08;0.90;;;;;;;3.86;50.03;99417.54;1752718;81;21063;-71
2022/01/15 05:19:12;;;;;;;2.85;1.32;;;;;;;3.83;50.11;99418.81;1752527;81;21515;-70
2022/01/15 05:21:38;;;;;;;4.67;1.00;;;;;;;3.79;49.91;99415.58;1752559;81;21628;-70
2022/01/15 05:24:06;;;;;;;1.67;0.72;;;;;;;3.75;50.02;99413.42;1752220;81;21119;-70
2022/01/15 05:26:33;;;;;;;2.50;1.15;;;;;;;3.75;50.05;99402.86;1752475;81;20956;-71
2022/01/15 05:29:02;;;;;;;4.42;1.00;;;;;;;3.74;49.80;99402.55;1752223;81;21027;-71
2022/01/15 05:31:29;;;;;;;2.50;0.88;;;;;;;3.74;50.13;99417.08;1752533;81;21051;-70
2022/01/15 05:33:55;;;;;;;6.47;0.90;;;;;;;3.71;50.03;99404.88;1752598;81;21039;-71
2022/01/15 05:36:21;;;;;;;2.37;0.70;;;;;;;3.69;50.41;99413.58;1752450;81;21129;-70
2022/01/15 05:38:48;;;;;;;2.05;0.70;;;;;;;3.65;50.58;99429.59;1752589;81;20996;-71
2022/01/15 05:41:14;;;;;;;2.55;0.80;;;;;;;3.65;50.55;99456.00;1752376;81;21051;-70
2022/01/15 05:43:41;;;;;;;6.17;1.20;;;;;;;3.72;50.50;99452.72;1752057;81;21062;-69
2022/01/15 05:46:07;;;;;;;4.42;1.20;;;;;;;3.76;50.61;99440.10;1752465;81;21011;-70
2022/01/15 05:48:35;;;;;;;3.58;0.90;;;;;;;3.82;50.50;99438.84;1752296;82;21601;-71
2022/01/15 05:51:01;;;;;;;4.03;1.02;;;;;;;3.83;50.44;99426.73;1752513;82;20987;-71
2022/01/15 05:53:28;;;;;;;2.42;0.80;;;;;;;3.85;50.47;99441.02;1752279;82;21110;-70
2022/01/15 05:55:54;;;;;;;3.62;0.95;;;;;;;3.89;50.39;99434.23;1751456;82;21031;-71
2022/01/15 05:58:21;;;;;;;3.40;0.93;;;;;;;3.90;50.33;99442.42;1752486;82;20964;-70
2022/01/15 06:00:49;;;;;;;3.92;1.20;;;;;;;3.93;50.12;99434.02;1741114;82;21196;-71
2022/01/15 06:03:15;;;;;;;3.47;1.00;;;;;;;3.93;49.96;99429.53;1733719;81;21047;-71
2022/01/15 06:05:42;;;;;;;5.33;1.07;;;;;;;3.96;49.89;99450.72;1729927;81;21115;-71
2022/01/15 06:08:08;;;;;;;3.10;1.00;;;;;;;3.98;50.02;99440.69;1725538;81;21004;-70
2022/01/15 06:10:34;;;;;;;3.75;0.90;;;;;;;3.97;49.67;99445.17;1738217;81;21585;-70
2022/01/15 06:13:02;;;;;;;4.95;0.90;;;;;;;3.98;48.99;99461.33;1736559;81;21272;-71
2022/01/15 06:15:28;;;;;;;3.40;0.90;;;;;;;4.00;48.73;99457.91;1752401;81;21557;-71
2022/01/15 06:17:55;;;;;;;3.25;1.00;;;;;;;4.05;48.55;99467.77;1752295;81;21083;-69
2022/01/15 06:20:21;;;;;;;2.95;1.02;;;;;;;4.09;48.37;99444.31;1751318;81;20960;-70
2022/01/15 06:22:48;;;;;;;1.98;0.90;;;;;;;4.11;48.37;99448.29;1725037;81;21051;-71
2022/01/15 06:25:14;;;;;;;3.58;1.00;;;;;;;4.13;48.20;99451.50;1752619;81;21619;-71
2022/01/15 06:27:41;;;;;;;5.92;0.93;;;;;;;4.13;48.33;99450.18;1752315;81;21016;-70
2022/01/15 06:30:08;;;;;;;3.22;0.90;;;;;;;4.15;48.48;99461.32;1752438;81;21099;-69
2022/01/15 06:32:39;;;;;;;3.27;1.05;;;;;;;4.14;48.00;99464.19;1752911;81;21102;-70
2022/01/15 06:35:10;;;;;;;3.12;1.00;;;;;;;4.16;47.98;99460.80;1751816;81;21671;-70
2022/01/15 06:37:36;;;;;;;3.00;1.25;;;;;;;4.17;47.59;99479.56;1752845;81;21132;-71
2022/01/15 06:40:05;;;;;;;2.02;0.90;;;;;;;4.25;47.81;99459.36;1752684;81;21173;-70
2022/01/15 06:42:31;;;;;;;3.12;1.10;;;;;;;4.26;47.73;99452.22;1752907;81;21039;-72
2022/01/15 06:44:58;;;;;;;3.40;1.02;;;;;;;4.32;47.84;99467.12;1752722;81;21068;-72
2022/01/15 06:47:25;;;;;;;2.95;0.90;;;;;;;4.32;47.72;99485.09;1752871;81;21091;-71
2022/01/15 06:49:51;;;;;;;1.47;0.70;;;;;;;4.34;47.43;99498.05;1752695;81;21864;-71
2022/01/15 06:52:18;;;;;;;3.37;1.20;;;;;;;4.36;47.18;99485.41;1752306;81;21585;-70
2022/01/15 06:54:44;;;;;;;2.83;1.25;;;;;;;4.40;47.35;99486.52;1752175;81;21538;-70
2022/01/15 06:57:10;;;;;;;4.05;1.25;;;;;;;4.44;47.41;99490.27;1752409;81;20965;-71
2022/01/15 06:59:37;;;;;;;2.33;0.88;;;;;;;4.44;47.48;99484.98;1752584;81;21048;-70
2022/01/15 07:02:07;;;;;;;3.25;1.00;;;;;;;4.48;47.69;99499.34;1752540;81;21063;-70
2022/01/15 07:04:33;;;;;;;5.40;1.07;;;;;;;4.50;47.59;99496.44;1752143;81;21164;-71
2022/01/15 07:07:00;;;;;;;2.85;1.22;;;;;;;4.49;47.87;99491.68;1752591;81;21011;-71
2022/01/15 07:09:27;;;;;;;4.20;0.80;;;;;;;4.45;47.96;99505.91;1752383;81;21016;-70
2022/01/15 07:11:53;;;;;;;3.52;1.00;;;;;;;4.42;48.13;99513.00;1752625;81;21470;-71
2022/01/15 07:14:22;;;;;;;2.75;1.02;;;;;;;4.39;48.46;99525.91;1752331;81;21420;-71
2022/01/15 07:16:49;;;;;;;5.85;1.20;;;;;;;4.35;48.64;99526.91;1752425;81;21020;-71
2022/01/15 07:19:16;;;;;;;2.87;1.00;;;;;;;4.38;49.01;99517.70;1752798;81;21007;-70
2022/01/15 07:21:43;;;;;;;5.33;1.20;;;;;;;4.36;49.28;99513.96;1752616;81;21157;-71
2022/01/15 07:24:11;;;;;;;5.47;1.37;;;;;;;4.38;49.45;99529.08;1752332;81;20968;-70
2022/01/15 07:26:37;;;;;;;2.62;1.07;;;;;;;4.42;49.70;99502.95;1752379;81;21523;-70
2022/01/15 07:29:06;;;;;;;4.85;1.00;;;;;;;4.44;49.74;99522.00;1752554;81;20980;-70
2022/01/15 07:31:32;;;;;;;4.67;1.10;;;;;;;4.43;49.72;99554.78;1752507;81;21546;-71
2022/01/15 07:33:59;;;;;;;2.12;0.90;;;;;;;4.46;49.85;99513.31;1752488;81;21031;-71
2022/01/15 07:36:25;;;;;;;5.78;1.40;;;;;;;4.47;50.07;99512.27;1752484;81;20999;-71
2022/01/15 07:38:52;;;;;;;3.42;1.10;;;;;;;4.50;50.02;99521.56;1752445;81;21215;-70
2022/01/15 07:41:18;;;;;;;5.45;1.30;;;;;;;4.54;49.95;99517.38;1752484;81;21060;-70
2022/01/15 07:43:44;;;;;;;4.85;1.40;;;;;;;4.56;50.05;99552.33;1752504;81;21110;-71
2022/01/15 07:46:11;;;;;;;2.87;1.10;;;;;;;4.51;49.93;99531.09;1746214;81;21184;-71
2022/01/15 07:48:38;;;;;;;4.42;1.50;;;;;;;4.47;50.14;99505.66;1724767;81;20964;-70
2022/01/15 07:51:05;;;;;;;5.12;1.32;;;;;;;4.45;50.19;99522.30;1722702;83;21167;-70
2022/01/15 07:53:33;;;;;;;4.03;1.30;;;;;;;4.45;49.99;99517.80;1722099;83;21025;-71
2022/01/15 07:56:00;;;;;;;8.38;1.20;;;;;;;4.47;50.07;99520.20;1722793;83;21060;-70
2022/01/15 07:58:27;;;;;;;4.42;1.25;;;;;;;4.48;50.04;99526.31;1722505;83;21094;-71
2022/01/15 08:00:54;;;;;;;2.87;1.00;;;;;;;4.44;50.12;99555.88;1722581;83;20961;-70
2022/01/15 08:03:20;;;;;;;4.20;1.22;;;;;;;4.45;50.12;99527.06;1722139;83;21143;-70
2022/01/15 08:05:46;;;;;;;3.33;1.20;;;;;;;4.55;50.44;99545.45;1722440;83;21086;-71
2022/01/15 08:08:13;;;;;;;4.28;1.20;;;;;;;4.67;50.43;99538.20;1722477;83;20992;-71
2022/01/15 08:10:42;;;;;;;2.75;1.00;;;;;;;4.75;50.05;99547.06;1722475;83;21133;-71
2022/01/15 08:13:09;;;;;;;3.45;1.00;;;;;;;4.81;49.97;99559.32;1722349;83;20992;-71
2022/01/15 08:15:35;;;;;;;3.00;1.20;;;;;;;4.78;49.91;99579.64;1722601;83;21027;-69
2022/01/15 08:18:04;;;;;;;3.77;1.00;;;;;;;4.78;49.84;99586.78;1722328;83;21066;-70
2022/01/15 08:20:30;;;;;;;3.05;1.00;;;;;;;4.75;49.86;99610.55;1722538;83;21066;-70
2022/01/15 08:22:58;;;;;;;4.22;1.27;;;;;;;4.74;49.74;99565.31;1722274;83;21585;-70
2022/01/15 08:25:27;;;;;;;4.25;1.10;;;;;;;4.73;49.99;99589.34;1711972;82;21078;-71
2022/01/15 08:27:54;;;;;;;3.47;1.40;;;;;;;4.72;50.13;99589.87;1709401;84;21451;-70
2022/01/15 08:30:21;;;;;;;4.67;1.20;;;;;;;4.73;50.34;99582.20;1713222;81;21427;-70
2022/01/15 08:32:47;;;;;;;4.30;1.30;;;;;;;4.75;50.39;99586.73;1723711;81;21058;-71
2022/01/15 08:35:14;;;;;;;2.77;1.40;;;;;;;4.73;50.39;99586.17;1740208;81;21090;-70
2022/01/15 08:37:41;;;;;;;4.47;1.30;;;;;;;4.74;50.38;99606.31;1752076;81;20992;-70
2022/01/15 08:40:10;;;;;;;4.92;1.40;;;;;;;4.75;50.31;99601.29;1751598;81;21492;-70
2022/01/15 08:42:38;;;;;;;3.83;1.60;;;;;;;4.73;50.42;99588.02;1752298;81;21106;-71
2022/01/15 08:45:08;;;;;;;2.83;1.10;;;;;;;4.71;50.76;99601.50;1751880;81;21225;-71
2022/01/15 08:47:35;;;;;;;3.47;1.20;;;;;;;4.72;50.70;99609.70;1751949;81;21067;-72
2022/01/15 08:50:03;;;;;;;5.05;1.30;;;;;;;4.73;50.73;99584.84;1752399;81;20988;-70
2022/01/15 08:52:30;;;;;;;4.03;1.20;;;;;;;4.70;50.62;99595.41;1752227;81;21120;-70
2022/01/15 08:54:57;;;;;;;3.15;1.10;;;;;;;4.75;50.82;99597.84;1752499;81;20999;-70
2022/01/15 08:57:24;;;;;;;2.37;1.00;;;;;;;4.75;51.21;99604.46;1752312;81;20964;-71
2022/01/15 08:59:51;;;;;;;2.40;1.00;;;;;;;4.75;51.10;99627.75;1752546;81;21030;-69
2022/01/15 09:02:17;;;;;;;5.60;2.02;;;;;;;4.79;51.27;99618.27;1751621;81;21703;-70
2022/01/15 09:04:44;;;;;;;4.08;1.10;;;;;;;4.81;51.38;99608.79;1738276;81;21532;-70
2022/01/15 09:07:12;;;;;;;7.22;1.27;;;;;;;4.81;51.48;99638.69;1722388;83;20952;-70
2022/01/15 09:09:40;;;;;;;4.80;1.80;;;;;;;4.81;51.74;99597.69;1722341;83;21074;-72
2022/01/15 09:12:07;;;;;;;4.10;1.00;;;;;;;4.80;51.84;99609.28;1722204;83;21512;-70
2022/01/15 09:14:33;;;;;;;3.87;1.40;;;;;;;4.85;51.98;99623.92;1722377;83;21055;-70
2022/01/15 09:17:00;;;;;;;7.12;1.62;;;;;;;4.87;52.20;99604.66;1722462;83;21162;-72
2022/01/15 09:19:26;;;;;;;4.47;1.10;;;;;;;4.86;52.25;99621.55;1722096;83;21020;-71
2022/01/15 09:21:53;;;;;;;4.10;1.30;;;;;;;4.89;52.46;99625.56;1722496;83;21109;-70
2022/01/15 09:24:19;;;;;;;3.62;1.20;;;;;;;4.86;52.62;99638.75;1711068;82;21007;-71
2022/01/15 09:31:52;;;;;;;4.87;1.45;;;;;;;4.89;52.42;99664.73;1676763;83;20994;-70
2022/01/15 09:34:19;;;;;;;4.33;1.15;;;;;;;4.89;52.42;99664.73;1724974;83;20963;-69
2022/01/15 09:36:46;;;;;;;3.47;1.20;;;;;;;4.85;52.64;99664.94;1726234;81;21043;-71
2022/01/15 09:39:12;;;;;;;4.90;1.07;;;;;;;4.85;52.85;99619.96;1752312;81;21038;-72
2022/01/15 09:41:41;;;;;;;5.03;1.42;;;;;;;4.83;52.82;99634.47;1755259;81;21484;-70
2022/01/15 09:44:07;;;;;;;4.50;1.55;;;;;;;4.79;52.69;99639.44;1725726;81;20959;-72
2022/01/15 09:46:36;;;;;;;3.20;1.20;;;;;;;4.81;52.82;99658.53;1754259;81;21073;-70
2022/01/15 09:49:03;;;;;;;4.05;1.35;;;;;;;4.84;52.83;99634.23;1714265;83;21418;-70
2022/01/15 09:51:30;;;;;;;3.55;1.30;;;;;;;4.88;52.83;99645.94;1724947;82;21065;-70
2022/01/15 09:53:57;;;;;;;4.25;1.30;;;;;;;4.94;52.84;99660.85;1725031;81;21110;-71
2022/01/15 09:56:23;;;;;;;4.37;1.60;;;;;;;5.02;52.70;99631.05;1721374;82;21122;-72
2022/01/15 09:58:50;;;;;;;3.17;1.17;;;;;;;5.01;52.44;99646.66;1740384;82;21039;-70
2022/01/15 10:01:16;;;;;;;4.72;1.35;;;;;;;5.04;52.16;99635.59;1752139;82;21490;-71
2022/01/15 10:03:43;;;;;;;4.42;1.30;;;;;;;5.07;51.97;99657.60;1752344;82;20976;-70
2022/01/15 10:06:10;;;;;;;3.45;1.27;;;;;;;5.09;51.78;99631.15;1752053;82;21139;-72
2022/01/15 10:08:37;;;;;;;4.58;1.20;;;;;;;5.11;51.84;99654.74;1752100;82;21063;-71
2022/01/15 10:11:11;;;;;;;4.33;1.30;;;;;;;5.13;52.04;99645.52;1752474;81;21415;-70
2022/01/15 10:13:38;;;;;;;4.33;1.47;;;;;;;5.16;52.08;99656.13;1749223;82;20964;-71
2022/01/15 10:16:10;;;;;;;3.08;0.98;;;;;;;5.11;51.85;99647.59;1673361;83;21011;-72
2022/01/15 10:18:44;;;;;;;5.03;1.35;;;;;;;5.11;52.38;99661.36;1722299;83;21057;-69
2022/01/15 10:21:18;;;;;;;4.35;1.27;;;;;;;5.11;52.57;99673.27;1721477;82;21040;-70
2022/01/15 10:23:52;;;;;;;2.42;1.02;;;;;;;5.08;52.37;99643.31;1709089;84;21023;-70
2022/01/15 10:26:32;;;;;;;3.87;1.35;;;;;;;5.06;52.63;99673.18;1709914;84;20991;-70
2022/01/15 10:29:07;;;;;;;5.05;1.40;;;;;;;5.05;52.51;99668.41;1715560;82;21050;-70
2022/01/15 10:31:42;;;;;;;4.37;1.30;;;;;;;5.02;52.36;99693.24;1722759;83;21821;-70
2022/01/15 10:34:29;;;;;;;3.27;1.30;;;;;;;5.03;52.40;99665.72;1697300;83;21000;-70
2022/01/15 10:37:08;;;;;;;3.45;1.15;;;;;;;5.02;52.39;99664.13;1724193;81;21566;-69
2022/01/15 10:39:35;;;;;;;3.30;1.35;;;;;;;4.98;52.10;99696.09;1722476;83;21613;-69
2022/01/15 10:42:15;;;;;;;3.00;1.20;;;;;;;4.99;52.08;99660.64;1730502;82;21110;-71
2022/01/15 10:44:42;;;;;;;4.40;1.37;;;;;;;4.99;52.31;99651.37;1752046;81;21800;-71
2022/01/15 10:47:15;;;;;;;5.12;1.40;;;;;;;5.01;52.35;99650.63;1733774;82;21031;-70
2022/01/15 10:49:42;;;;;;;3.05;1.20;;;;;;;5.06;52.34;99669.21;1740016;81;21624;-70
2022/01/15 10:52:14;;;;;;;3.33;1.15;;;;;;;5.10;51.84;99666.35;1752426;81;20971;-70
2022/01/15 10:55:06;;;;;;;4.53;1.57;;;;;;;5.17;51.68;99645.83;1752830;81;21158;-70
2022/01/15 10:57:39;;;;;;;4.13;1.27;;;;;;;5.17;51.67;99659.86;1728745;81;21953;-70
2022/01/15 11:00:16;;;;;;;4.05;1.00;;;;;;;5.23;51.80;99663.89;1725021;81;21090;-71
2022/01/15 11:02:47;;;;;;;2.67;0.90;;;;;;;5.24;51.98;99707.34;1722366;83;20996;-71
2022/01/15 11:05:27;;;;;;;4.05;1.20;;;;;;;5.26;52.11;99677.97;1751391;81;21079;-70
2022/01/15 11:07:58;;;;;;;4.78;1.17;;;;;;;5.24;51.66;99682.20;1752379;81;21055;-71
2022/01/15 11:10:24;;;;;;;2.12;1.00;;;;;;;5.26;51.63;99676.13;1751768;81;21705;-71
2022/01/15 11:12:51;;;;;;;3.00;1.20;;;;;;;5.30;51.64;99714.33;1752074;81;21020;-70
2022/01/15 11:15:19;;;;;;;4.92;1.77;;;;;;;5.30;51.75;99688.37;1752589;81;21043;-71
2022/01/15 11:17:47;;;;;;;3.80;1.42;;;;;;;5.24;51.80;99686.17;1752194;81;21134;-71
2022/01/15 11:20:14;;;;;;;3.77;1.32;;;;;;;5.23;52.12;99695.16;1752588;81;20936;-71
2022/01/15 11:22:40;;;;;;;3.58;1.32;;;;;;;5.21;52.25;99703.86;1752213;81;21034;-70
2022/01/15 11:25:11;;;;;;;5.20;1.50;;;;;;;5.18;52.77;99706.98;1752420;81;21000;-71
2022/01/15 11:27:37;;;;;;;3.05;1.22;;;;;;;5.13;53.15;99714.34;1752475;81;21067;-70
2022/01/15 11:30:05;;;;;;;4.17;1.50;;;;;;;5.09;53.40;99782.02;1752667;81;21079;-71
2022/01/15 11:32:32;;;;;;;4.05;1.30;;;;;;;5.05;53.55;99724.52;1752226;81;21046;-70
2022/01/15 11:35:02;;;;;;;3.83;1.40;;;;;;;5.03;53.65;99722.10;1752890;81;21067;-70
2022/01/15 11:37:29;;;;;;;3.05;1.30;;;;;;;5.04;53.62;99739.61;1752019;81;21051;-71
2022/01/15 11:39:56;;;;;;;2.92;1.20;;;;;;;5.00;53.45;99744.28;1699595;81;21051;-69
2022/01/15 11:42:28;;;;;;;2.95;1.20;;;;;;;4.99;53.34;99751.42;1745175;81;21057;-69
2022/01/15 11:44:54;;;;;;;;;;;;;;;4.99;53.21;99757.23;1725398;83;21476;-71
2022/01/15 11:47:23;;;;;;;5.15;1.45;;;;;;;4.98;52.96;99754.31;1722659;83;21151;-71
2022/01/15 11:49:52;;;;;;;4.42;1.65;;;;;;;4.97;53.05;99746.91;1722466;83;20940;-71
2022/01/15 11:52:26;;;;;;;5.62;1.70;;;;;;;4.97;53.24;99741.61;1722772;83;21511;-72
2022/01/15 11:55:05;;;;;;;6.17;1.60;;;;;;;4.98;53.20;99735.27;1722796;83;21502;-71
2022/01/15 11:57:36;;;;;;;5.58;1.60;;;;;;;5.00;53.17;99750.40;1722411;83;21074;-71
2022/01/15 12:00:21;;;;;;;3.37;1.52;;;;;;;4.99;52.87;99746.66;1722894;83;21105;-71
2022/01/15 12:03:07;;;;;;;4.75;1.52;;;;;;;4.99;52.63;99758.56;1698496;83;21526;-71
2022/01/15 12:05:41;;;;;;;5.83;1.98;;;;;;;4.98;52.64;99745.05;1722442;83;21074;-71
2022/01/15 12:08:17;;;;;;;6.28;1.50;;;;;;;4.99;52.53;99741.36;1722551;83;21094;-72
2022/01/15 12:10:51;;;;;;;5.20;1.60;;;;;;;4.99;52.18;99747.97;1722800;83;21017;-71
2022/01/15 12:13:23;;;;;;;5.00;1.60;;;;;;;5.01;52.17;99768.40;1722339;83;21494;-71